Guenther Schulte — VRGK8 — position and weather

sailwx.info

Track history (hours):
 
Tides and Currents Weather Stations Pressure Air Temp Water Temp Dewpoint Dewpoint Depression Visibility Wind Speed Wind Dir Waves Ship Positions

Guenther Schulte

Last reported at 2016-Jul-23 01:29 UTC. Time now 2016-Jul-28 20:20 UTC.
Position S 35°48' E 175°30'.

Length 231 m; draft 9.6 m.

Type: Ship (hazmat cat C). MMSI: 477728800.

Date/timePositionNaut miles runAvg speedWind from/ knotsBaromVisibWave heightAir tempDewpointWater temp
2016-Jul-23 01:29S 35°48' E 175°30'  
2016-Jul-18 10:19S 36°04' E 150°41'1216.3
2016-Jul-18 09:34S 36°16' E 150°36'1615.8
2016-Jul-18 08:34S 36°31' E 150°31'1616.2
2016-Jul-18 07:34S 36°47' E 150°24'1515.2
2016-Jul-18 06:33S 37°01' E 150°19'1212.4
2016-Jul-18 05:33S 37°13' E 150°14'1312.5
2016-Jul-18 04:33S 37°25' E 150°10'1313.0
2016-Jul-18 03:33S 37°37' E 150°03'1313.0
2016-Jul-18 02:33S 37°45' E 149°51'1313.0
2016-Jul-18 01:33S 37°53' E 149°38'1312.7
2016-Jul-18 00:33S 38°01' E 149°25'1212.3
2016-Jul-17 23:33S 38°10' E 149°14'1312.5
2016-Jul-17 22:33S 38°18' E 149°01'1514.9
2016-Jul-17 21:33S 38°27' E 148°47'1615.9
2016-Jul-17 20:34S 38°38' E 148°32'1515.2
2016-Jul-17 19:34S 38°47' E 148°16'1515.2
2016-Jul-17 18:33S 38°52' E 147°57'1615.7
2016-Jul-17 17:33S 38°58' E 147°39'1515.5
2016-Jul-17 16:33S 39°05' E 147°21'1615.6
2016-Jul-17 15:33S 39°10' E 147°02'1616.0
2016-Jul-17 14:33S 39°15' E 146°42'1515.5
2016-Jul-17 13:33S 39°18' E 146°23'1615.5
2016-Jul-17 12:33S 39°16' E 146°03'1615.9
2016-Jul-17 11:34S 39°07' E 145°46'1616.2
2016-Jul-17 10:34S 38°57' E 145°30'11 0.3
2016-Jul-15 18:33S 38°58' E 145°44'1515.0
2016-Jul-15 17:33S 39°05' E 146°01'1515.0
2016-Jul-15 16:33S 39°11' E 146°18'1615.7
2016-Jul-15 15:33S 39°07' E 146°38'2115.3
2016-Jul-15 14:13S 39°01' E 147°03'1014.8
2016-Jul-15 13:33S 38°58' E 147°15'6614.7
2016-Jul-15 09:03S 38°35' E 148°35'915.5
2016-Jul-15 08:27S 38°31' E 148°46'1415.2
2016-Jul-15 07:33S 38°25' E 149°02'1514.8
2016-Jul-15 06:33S 38°18' E 149°18'1515.0
2016-Jul-15 05:33S 38°11' E 149°35'1514.6
2016-Jul-15 04:34S 38°04' E 149°51'1414.5
2016-Jul-15 03:34S 37°57' E 150°08'1414.3
2016-Jul-15 02:33S 37°50' E 150°23'1414.0
2016-Jul-15 01:33S 37°43' E 150°39'1414.5
2016-Jul-15 00:33S 37°34' E 150°53'1514.7
2016-Jul-14 23:33S 37°25' E 151°07'  
Track history (hours):
 
Tides and Currents Weather Stations Pressure Air Temp Water Temp Dewpoint Dewpoint Depression Visibility Wind Speed Wind Dir Waves Ship Positions

Guenther Schulte

Last reported at 2016-Jul-23 01:29 UTC. Time now 2016-Jul-28 20:20 UTC.
Position S 35°48' E 175°30'.

Length 231 m; draft 9.6 m.

Type: Ship (hazmat cat C). MMSI: 477728800.

Date/timePositionNaut miles runAvg speedWind from/ knotsBaromVisibWave heightAir tempDewpointWater temp
2016-Jul-23 01:29S 35°48' E 175°30'  
2016-Jul-18 10:19S 36°04' E 150°41'1216.3
2016-Jul-18 09:34S 36°16' E 150°36'1615.8
2016-Jul-18 08:34S 36°31' E 150°31'1616.2
2016-Jul-18 07:34S 36°47' E 150°24'1515.2
2016-Jul-18 06:33S 37°01' E 150°19'1212.4
2016-Jul-18 05:33S 37°13' E 150°14'1312.5
2016-Jul-18 04:33S 37°25' E 150°10'1313.0
2016-Jul-18 03:33S 37°37' E 150°03'1313.0
2016-Jul-18 02:33S 37°45' E 149°51'1313.0
2016-Jul-18 01:33S 37°53' E 149°38'1312.7
2016-Jul-18 00:33S 38°01' E 149°25'1212.3
2016-Jul-17 23:33S 38°10' E 149°14'1312.5
2016-Jul-17 22:33S 38°18' E 149°01'1514.9
2016-Jul-17 21:33S 38°27' E 148°47'1615.9
2016-Jul-17 20:34S 38°38' E 148°32'1515.2
2016-Jul-17 19:34S 38°47' E 148°16'1515.2
2016-Jul-17 18:33S 38°52' E 147°57'1615.7
2016-Jul-17 17:33S 38°58' E 147°39'1515.5
2016-Jul-17 16:33S 39°05' E 147°21'1615.6
2016-Jul-17 15:33S 39°10' E 147°02'1616.0
2016-Jul-17 14:33S 39°15' E 146°42'1515.5
2016-Jul-17 13:33S 39°18' E 146°23'1615.5
2016-Jul-17 12:33S 39°16' E 146°03'1615.9
2016-Jul-17 11:34S 39°07' E 145°46'1616.2
2016-Jul-17 10:34S 38°57' E 145°30'11 0.3
2016-Jul-15 18:33S 38°58' E 145°44'1515.0
2016-Jul-15 17:33S 39°05' E 146°01'1515.0
2016-Jul-15 16:33S 39°11' E 146°18'1615.7
2016-Jul-15 15:33S 39°07' E 146°38'2115.3
2016-Jul-15 14:13S 39°01' E 147°03'1014.8
2016-Jul-15 13:33S 38°58' E 147°15'6614.7
2016-Jul-15 09:03S 38°35' E 148°35'915.5
2016-Jul-15 08:27S 38°31' E 148°46'1415.2
2016-Jul-15 07:33S 38°25' E 149°02'1514.8
2016-Jul-15 06:33S 38°18' E 149°18'1515.0
2016-Jul-15 05:33S 38°11' E 149°35'1514.6
2016-Jul-15 04:34S 38°04' E 149°51'1414.5
2016-Jul-15 03:34S 37°57' E 150°08'1414.3
2016-Jul-15 02:33S 37°50' E 150°23'1414.0
2016-Jul-15 01:33S 37°43' E 150°39'1414.5
2016-Jul-15 00:33S 37°34' E 150°53'1514.7
2016-Jul-14 23:33S 37°25' E 151°07'  

Dump ship's entire track history